sensor_id;sensor_type;location;lat;lon;timestamp;temperature;humidity
5978;DHT22;3015;51.390;12.256;2022-12-16T00:00:07;-10.30;99.90
5978;DHT22;3015;51.390;12.256;2022-12-16T00:02:34;-10.20;99.90
5978;DHT22;3015;51.390;12.256;2022-12-16T00:05:00;-10.10;99.90
5978;DHT22;3015;51.390;12.256;2022-12-16T00:07:25;-10.10;99.90
5978;DHT22;3015;51.390;12.256;2022-12-16T00:09:51;-10.00;99.90
5978;DHT22;3015;51.390;12.256;2022-12-16T00:12:17;-10.00;99.90
5978;DHT22;3015;51.390;12.256;2022-12-16T00:14:42;-9.90;1.00
5978;DHT22;3015;51.390;12.256;2022-12-16T00:17:08;-9.80;99.90
5978;DHT22;3015;51.390;12.256;2022-12-16T00:19:34;-9.80;48.60
5978;DHT22;3015;51.390;12.256;2022-12-16T00:21:59;-9.80;1.00
5978;DHT22;3015;51.390;12.256;2022-12-16T00:24:25;-9.80;4.20
5978;DHT22;3015;51.390;12.256;2022-12-16T00:26:50;-9.80;93.80
5978;DHT22;3015;51.390;12.256;2022-12-16T00:29:16;-9.80;13.30
5978;DHT22;3015;51.390;12.256;2022-12-16T00:31:42;-9.70;99.90
5978;DHT22;3015;51.390;12.256;2022-12-16T00:34:15;-9.40;16.60
5978;DHT22;3015;51.390;12.256;2022-12-16T00:36:41;-9.30;99.90
5978;DHT22;3015;51.390;12.256;2022-12-16T00:39:08;-9.20;66.90
5978;DHT22;3015;51.390;12.256;2022-12-16T00:41:34;-9.10;99.90
5978;DHT22;3015;51.390;12.256;2022-12-16T00:43:59;-9.00;1.00
5978;DHT22;3015;51.390;12.256;2022-12-16T00:46:25;-9.00;1.00
5978;DHT22;3015;51.390;12.256;2022-12-16T00:48:51;-9.00;1.00
5978;DHT22;3015;51.390;12.256;2022-12-16T00:51:16;-9.00;95.40
5978;DHT22;3015;51.390;12.256;2022-12-16T00:53:42;-8.90;99.90
5978;DHT22;3015;51.390;12.256;2022-12-16T00:56:09;-8.90;1.00
5978;DHT22;3015;51.390;12.256;2022-12-16T00:58:36;-8.80;1.00
5978;DHT22;3015;51.390;12.256;2022-12-16T01:01:02;-8.70;1.00
5978;DHT22;3015;51.390;12.256;2022-12-16T01:03:28;-8.60;1.00
5978;DHT22;3015;51.390;12.256;2022-12-16T01:05:54;-8.60;1.00
5978;DHT22;3015;51.390;12.256;2022-12-16T01:08:20;-8.50;1.00
5978;DHT22;3015;51.390;12.256;2022-12-16T01:10:53;-8.50;1.00
5978;DHT22;3015;51.390;12.256;2022-12-16T01:13:19;-8.40;1.00
5978;DHT22;3015;51.390;12.256;2022-12-16T01:15:45;-8.30;1.00
5978;DHT22;3015;51.390;12.256;2022-12-16T01:18:11;-8.30;1.00
5978;DHT22;3015;51.390;12.256;2022-12-16T01:20:36;-8.30;1.00
5978;DHT22;3015;51.390;12.256;2022-12-16T01:23:03;-8.30;1.00
5978;DHT22;3015;51.390;12.256;2022-12-16T01:25:29;-8.20;3.50
5978;DHT22;3015;51.390;12.256;2022-12-16T01:27:54;-8.10;1.00
5978;DHT22;3015;51.390;12.256;2022-12-16T01:30:20;-8.20;1.00
5978;DHT22;3015;51.390;12.256;2022-12-16T01:32:46;-8.30;1.00
5978;DHT22;3015;51.390;12.256;2022-12-16T01:35:12;-8.30;9.70
5978;DHT22;3015;51.390;12.256;2022-12-16T01:37:38;-8.30;1.00
5978;DHT22;3015;51.390;12.256;2022-12-16T01:40:05;-8.40;1.00
5978;DHT22;3015;51.390;12.256;2022-12-16T01:42:31;-8.30;1.00
5978;DHT22;3015;51.390;12.256;2022-12-16T01:47:53;-8.50;1.00
5978;DHT22;3015;51.390;12.256;2022-12-16T01:50:20;-8.60;99.90
5978;DHT22;3015;51.390;12.256;2022-12-16T01:52:50;-8.70;99.90
5978;DHT22;3015;51.390;12.256;2022-12-16T01:55:20;-8.80;1.00
5978;DHT22;3015;51.390;12.256;2022-12-16T01:57:53;-8.80;99.90
5978;DHT22;3015;51.390;12.256;2022-12-16T02:00:19;-8.80;2.80
5978;DHT22;3015;51.390;12.256;2022-12-16T02:02:46;-8.80;1.00
5978;DHT22;3015;51.390;12.256;2022-12-16T02:05:14;-8.80;1.00
5978;DHT22;3015;51.390;12.256;2022-12-16T02:08:12;-8.80;1.00
5978;DHT22;3015;51.390;12.256;2022-12-16T02:13:36;-8.70;99.90
5978;DHT22;3015;51.390;12.256;2022-12-16T02:16:14;-8.60;1.00
5978;DHT22;3015;51.390;12.256;2022-12-16T02:21:48;-8.60;1.00
5978;DHT22;3015;51.390;12.256;2022-12-16T02:24:29;-8.60;1.00
5978;DHT22;3015;51.390;12.256;2022-12-16T02:27:13;-8.60;1.00
5978;DHT22;3015;51.390;12.256;2022-12-16T02:40:20;-8.50;1.00
5978;DHT22;3015;51.390;12.256;2022-12-16T02:42:52;-8.50;99.90
5978;DHT22;3015;51.390;12.256;2022-12-16T02:45:23;-8.50;1.00
5978;DHT22;3015;51.390;12.256;2022-12-16T02:47:50;-8.50;1.00
5978;DHT22;3015;51.390;12.256;2022-12-16T02:50:27;-8.60;99.90
5978;DHT22;3015;51.390;12.256;2022-12-16T02:52:56;-8.60;1.00
5978;DHT22;3015;51.390;12.256;2022-12-16T02:55:32;-8.70;1.00
5978;DHT22;3015;51.390;12.256;2022-12-16T02:58:49;-8.70;1.00
5978;DHT22;3015;51.390;12.256;2022-12-16T03:00:58;-8.80;99.90
5978;DHT22;3015;51.390;12.256;2022-12-16T03:03:54;-8.90;99.90
5978;DHT22;3015;51.390;12.256;2022-12-16T03:06:23;-8.90;99.90
5978;DHT22;3015;51.390;12.256;2022-12-16T03:08:52;-9.00;99.90
5978;DHT22;3015;51.390;12.256;2022-12-16T03:11:19;-9.00;1.00
5978;DHT22;3015;51.390;12.256;2022-12-16T03:13:49;-9.10;99.90
5978;DHT22;3015;51.390;12.256;2022-12-16T03:16:19;-9.20;99.90
5978;DHT22;3015;51.390;12.256;2022-12-16T03:18:53;-9.10;99.90
5978;DHT22;3015;51.390;12.256;2022-12-16T03:21:21;-9.10;99.90
5978;DHT22;3015;51.390;12.256;2022-12-16T03:24:04;-9.10;99.90
5978;DHT22;3015;51.390;12.256;2022-12-16T03:29:45;-9.20;77.00
5978;DHT22;3015;51.390;12.256;2022-12-16T03:32:28;-9.30;65.00
5978;DHT22;3015;51.390;12.256;2022-12-16T03:35:07;-9.40;1.00
5978;DHT22;3015;51.390;12.256;2022-12-16T03:37:36;-9.40;99.90
5978;DHT22;3015;51.390;12.256;2022-12-16T03:40:05;-9.40;99.90
5978;DHT22;3015;51.390;12.256;2022-12-16T03:42:32;-9.40;63.10
5978;DHT22;3015;51.390;12.256;2022-12-16T03:44:58;-9.50;1.00
5978;DHT22;3015;51.390;12.256;2022-12-16T03:47:28;-9.50;67.80
5978;DHT22;3015;51.390;12.256;2022-12-16T03:49:54;-9.60;1.00
5978;DHT22;3015;51.390;12.256;2022-12-16T03:52:19;-9.80;1.00
5978;DHT22;3015;51.390;12.256;2022-12-16T03:54:45;-9.80;1.00
5978;DHT22;3015;51.390;12.256;2022-12-16T03:57:11;-9.90;1.00
5978;DHT22;3015;51.390;12.256;2022-12-16T03:59:37;-9.90;1.00
5978;DHT22;3015;51.390;12.256;2022-12-16T04:02:03;-9.90;98.80
5978;DHT22;3015;51.390;12.256;2022-12-16T04:04:28;-10.00;1.00
5978;DHT22;3015;51.390;12.256;2022-12-16T04:06:54;-10.00;1.00
5978;DHT22;3015;51.390;12.256;2022-12-16T04:09:38;-10.10;1.00
5978;DHT22;3015;51.390;12.256;2022-12-16T04:12:04;-10.20;1.00
5978;DHT22;3015;51.390;12.256;2022-12-16T04:14:48;-10.30;1.00
5978;DHT22;3015;51.390;12.256;2022-12-16T04:17:32;-10.30;1.00
5978;DHT22;3015;51.390;12.256;2022-12-16T04:20:17;-10.30;1.00
5978;DHT22;3015;51.390;12.256;2022-12-16T04:23:02;-10.40;1.00
5978;DHT22;3015;51.390;12.256;2022-12-16T04:25:46;-10.40;99.90
5978;DHT22;3015;51.390;12.256;2022-12-16T04:28:12;-10.40;1.00
5978;DHT22;3015;51.390;12.256;2022-12-16T04:30:37;-10.50;99.90
5978;DHT22;3015;51.390;12.256;2022-12-16T04:33:11;-10.50;99.90
5978;DHT22;3015;51.390;12.256;2022-12-16T04:35:57;-10.50;99.90
5978;DHT22;3015;51.390;12.256;2022-12-16T04:38:41;-10.60;99.90
5978;DHT22;3015;51.390;12.256;2022-12-16T04:41:25;-10.50;99.90
5978;DHT22;3015;51.390;12.256;2022-12-16T04:44:09;-10.50;99.90
5978;DHT22;3015;51.390;12.256;2022-12-16T04:46:53;-10.60;99.90
5978;DHT22;3015;51.390;12.256;2022-12-16T04:49:37;-10.60;1.00
5978;DHT22;3015;51.390;12.256;2022-12-16T04:52:21;-10.50;1.00
5978;DHT22;3015;51.390;12.256;2022-12-16T04:55:06;-10.60;1.00
5978;DHT22;3015;51.390;12.256;2022-12-16T04:57:52;-10.50;1.00
5978;DHT22;3015;51.390;12.256;2022-12-16T05:00:37;-10.50;99.90
5978;DHT22;3015;51.390;12.256;2022-12-16T05:03:21;-10.60;99.90
5978;DHT22;3015;51.390;12.256;2022-12-16T05:06:06;-10.60;99.90
5978;DHT22;3015;51.390;12.256;2022-12-16T05:08:50;-10.60;99.90
5978;DHT22;3015;51.390;12.256;2022-12-16T05:11:34;-10.60;99.90
5978;DHT22;3015;51.390;12.256;2022-12-16T05:14:18;-10.60;99.90
5978;DHT22;3015;51.390;12.256;2022-12-16T05:17:02;-10.60;99.90
5978;DHT22;3015;51.390;12.256;2022-12-16T05:19:46;-10.60;1.00
5978;DHT22;3015;51.390;12.256;2022-12-16T05:22:30;-10.50;1.00
5978;DHT22;3015;51.390;12.256;2022-12-16T05:25:14;-10.30;1.00
5978;DHT22;3015;51.390;12.256;2022-12-16T05:27:58;-10.30;99.90
5978;DHT22;3015;51.390;12.256;2022-12-16T05:30:42;-10.20;99.90
5978;DHT22;3015;51.390;12.256;2022-12-16T05:33:26;-10.10;1.00
5978;DHT22;3015;51.390;12.256;2022-12-16T05:36:10;-10.00;1.00
5978;DHT22;3015;51.390;12.256;2022-12-16T05:38:54;-10.10;99.90
5978;DHT22;3015;51.390;12.256;2022-12-16T05:41:38;-10.10;99.90
5978;DHT22;3015;51.390;12.256;2022-12-16T05:44:23;-10.00;99.90
5978;DHT22;3015;51.390;12.256;2022-12-16T05:47:08;-10.10;2.00
5978;DHT22;3015;51.390;12.256;2022-12-16T05:49:52;-10.10;1.90
5978;DHT22;3015;51.390;12.256;2022-12-16T05:52:36;-10.10;99.90
5978;DHT22;3015;51.390;12.256;2022-12-16T05:55:20;-10.10;99.90
5978;DHT22;3015;51.390;12.256;2022-12-16T05:58:05;-10.20;99.90
5978;DHT22;3015;51.390;12.256;2022-12-16T06:00:50;-10.30;1.00
5978;DHT22;3015;51.390;12.256;2022-12-16T06:03:35;-10.40;1.00
5978;DHT22;3015;51.390;12.256;2022-12-16T06:06:19;-10.40;1.00
5978;DHT22;3015;51.390;12.256;2022-12-16T06:09:03;-10.50;1.00
5978;DHT22;3015;51.390;12.256;2022-12-16T06:11:49;-10.40;99.90
5978;DHT22;3015;51.390;12.256;2022-12-16T06:14:33;-10.30;55.10
5978;DHT22;3015;51.390;12.256;2022-12-16T06:17:17;-10.30;99.90
5978;DHT22;3015;51.390;12.256;2022-12-16T06:20:01;-10.20;1.00
5978;DHT22;3015;51.390;12.256;2022-12-16T06:22:53;-10.20;99.90
5978;DHT22;3015;51.390;12.256;2022-12-16T06:25:37;-10.20;99.90
5978;DHT22;3015;51.390;12.256;2022-12-16T06:28:21;-10.00;1.00
5978;DHT22;3015;51.390;12.256;2022-12-16T06:31:06;-10.10;99.90
5978;DHT22;3015;51.390;12.256;2022-12-16T06:33:51;-10.10;89.40
5978;DHT22;3015;51.390;12.256;2022-12-16T06:36:35;-10.00;99.90
5978;DHT22;3015;51.390;12.256;2022-12-16T06:39:19;-9.90;1.00
5978;DHT22;3015;51.390;12.256;2022-12-16T06:42:03;-9.90;99.90
5978;DHT22;3015;51.390;12.256;2022-12-16T06:44:47;-10.00;99.90
5978;DHT22;3015;51.390;12.256;2022-12-16T06:47:31;-9.90;1.00
5978;DHT22;3015;51.390;12.256;2022-12-16T06:50:15;-9.70;1.00
5978;DHT22;3015;51.390;12.256;2022-12-16T06:52:59;-9.80;99.90
5978;DHT22;3015;51.390;12.256;2022-12-16T06:55:44;-9.80;99.90
5978;DHT22;3015;51.390;12.256;2022-12-16T06:58:39;-9.90;99.90
5978;DHT22;3015;51.390;12.256;2022-12-16T07:01:23;-10.00;99.90
5978;DHT22;3015;51.390;12.256;2022-12-16T07:04:11;-9.90;1.00
5978;DHT22;3015;51.390;12.256;2022-12-16T07:06:56;-10.10;99.90
5978;DHT22;3015;51.390;12.256;2022-12-16T07:09:40;-10.00;1.00
5978;DHT22;3015;51.390;12.256;2022-12-16T07:12:24;-9.80;99.90
5978;DHT22;3015;51.390;12.256;2022-12-16T07:15:08;-9.70;1.00
5978;DHT22;3015;51.390;12.256;2022-12-16T07:17:52;-9.70;1.00
5978;DHT22;3015;51.390;12.256;2022-12-16T07:20:36;-9.60;1.00
5978;DHT22;3015;51.390;12.256;2022-12-16T07:23:20;-9.60;99.90
5978;DHT22;3015;51.390;12.256;2022-12-16T07:26:04;-9.70;1.00
5978;DHT22;3015;51.390;12.256;2022-12-16T07:28:48;-9.80;1.00
5978;DHT22;3015;51.390;12.256;2022-12-16T07:31:32;-9.60;99.90
5978;DHT22;3015;51.390;12.256;2022-12-16T07:34:16;-9.60;99.90
5978;DHT22;3015;51.390;12.256;2022-12-16T07:37:00;-9.50;99.90
5978;DHT22;3015;51.390;12.256;2022-12-16T07:39:44;-9.40;1.00
5978;DHT22;3015;51.390;12.256;2022-12-16T07:42:28;-9.30;1.00
5978;DHT22;3015;51.390;12.256;2022-12-16T07:45:12;-9.20;99.90
5978;DHT22;3015;51.390;12.256;2022-12-16T07:47:56;-9.00;1.00
5978;DHT22;3015;51.390;12.256;2022-12-16T07:50:41;-9.00;99.90
5978;DHT22;3015;51.390;12.256;2022-12-16T07:53:25;-8.90;99.90
5978;DHT22;3015;51.390;12.256;2022-12-16T07:56:10;-8.80;1.00
5978;DHT22;3015;51.390;12.256;2022-12-16T07:58:55;-8.80;1.00
5978;DHT22;3015;51.390;12.256;2022-12-16T08:01:39;-8.70;99.90
5978;DHT22;3015;51.390;12.256;2022-12-16T08:04:23;-8.60;1.00
5978;DHT22;3015;51.390;12.256;2022-12-16T08:07:08;-8.50;99.90
5978;DHT22;3015;51.390;12.256;2022-12-16T08:09:52;-8.40;99.90
5978;DHT22;3015;51.390;12.256;2022-12-16T08:12:36;-8.30;1.00
5978;DHT22;3015;51.390;12.256;2022-12-16T08:15:20;-8.20;1.00
5978;DHT22;3015;51.390;12.256;2022-12-16T08:18:04;-8.20;1.00
5978;DHT22;3015;51.390;12.256;2022-12-16T08:20:48;-8.20;1.00
5978;DHT22;3015;51.390;12.256;2022-12-16T08:23:32;-8.10;99.90
5978;DHT22;3015;51.390;12.256;2022-12-16T08:26:16;-7.90;99.90
5978;DHT22;3015;51.390;12.256;2022-12-16T08:29:01;-7.80;14.20
5978;DHT22;3015;51.390;12.256;2022-12-16T08:31:45;-7.70;1.00
5978;DHT22;3015;51.390;12.256;2022-12-16T08:34:29;-7.70;1.00
5978;DHT22;3015;51.390;12.256;2022-12-16T08:37:12;-7.60;1.00
5978;DHT22;3015;51.390;12.256;2022-12-16T08:39:56;-7.40;99.90
5978;DHT22;3015;51.390;12.256;2022-12-16T08:42:41;-7.10;99.90
5978;DHT22;3015;51.390;12.256;2022-12-16T08:45:25;-6.70;1.00
5978;DHT22;3015;51.390;12.256;2022-12-16T08:48:10;-5.80;1.00
5978;DHT22;3015;51.390;12.256;2022-12-16T08:50:54;-4.80;99.90
5978;DHT22;3015;51.390;12.256;2022-12-16T08:53:38;-4.10;94.30
5978;DHT22;3015;51.390;12.256;2022-12-16T08:56:22;-3.70;1.00
5978;DHT22;3015;51.390;12.256;2022-12-16T08:59:06;-3.70;1.00
5978;DHT22;3015;51.390;12.256;2022-12-16T09:01:50;-3.70;1.00
5978;DHT22;3015;51.390;12.256;2022-12-16T09:04:34;-3.70;1.00
5978;DHT22;3015;51.390;12.256;2022-12-16T09:07:19;-3.70;1.00
5978;DHT22;3015;51.390;12.256;2022-12-16T09:10:04;-3.00;99.90
5978;DHT22;3015;51.390;12.256;2022-12-16T09:12:49;-3.10;99.90
5978;DHT22;3015;51.390;12.256;2022-12-16T09:15:32;-3.40;99.90
5978;DHT22;3015;51.390;12.256;2022-12-16T09:18:16;-3.80;1.00
5978;DHT22;3015;51.390;12.256;2022-12-16T09:21:00;-4.40;1.00
5978;DHT22;3015;51.390;12.256;2022-12-16T09:23:44;-4.70;1.00
5978;DHT22;3015;51.390;12.256;2022-12-16T09:26:29;-5.00;1.00
5978;DHT22;3015;51.390;12.256;2022-12-16T09:29:13;-5.20;79.60
5978;DHT22;3015;51.390;12.256;2022-12-16T09:31:57;-5.20;99.90
5978;DHT22;3015;51.390;12.256;2022-12-16T09:34:41;-5.20;99.90
5978;DHT22;3015;51.390;12.256;2022-12-16T09:37:25;-5.20;99.90
5978;DHT22;3015;51.390;12.256;2022-12-16T09:40:15;-5.20;99.90
5978;DHT22;3015;51.390;12.256;2022-12-16T09:46:46;-5.30;99.90
5978;DHT22;3015;51.390;12.256;2022-12-16T09:52:27;-5.00;99.90
5978;DHT22;3015;51.390;12.256;2022-12-16T09:55:35;-4.90;99.90
5978;DHT22;3015;51.390;12.256;2022-12-16T09:58:22;-4.70;99.90
5978;DHT22;3015;51.390;12.256;2022-12-16T10:01:10;-4.40;99.90
5978;DHT22;3015;51.390;12.256;2022-12-16T10:03:55;-4.30;99.90
5978;DHT22;3015;51.390;12.256;2022-12-16T10:09:28;-4.10;99.90
5978;DHT22;3015;51.390;12.256;2022-12-16T10:13:15;-4.00;99.90
5978;DHT22;3015;51.390;12.256;2022-12-16T10:22:02;-1.70;1.00
5978;DHT22;3015;51.390;12.256;2022-12-16T10:25:05;1.00;99.90
5978;DHT22;3015;51.390;12.256;2022-12-16T10:27:56;3.00;99.90
5978;DHT22;3015;51.390;12.256;2022-12-16T10:30:43;3.90;99.90
5978;DHT22;3015;51.390;12.256;2022-12-16T10:33:28;5.40;99.90
5978;DHT22;3015;51.390;12.256;2022-12-16T10:36:20;6.20;99.90
5978;DHT22;3015;51.390;12.256;2022-12-16T10:39:26;7.20;99.90
5978;DHT22;3015;51.390;12.256;2022-12-16T10:42:25;7.40;99.90
5978;DHT22;3015;51.390;12.256;2022-12-16T10:45:37;7.80;99.90
5978;DHT22;3015;51.390;12.256;2022-12-16T10:48:28;8.50;99.90
5978;DHT22;3015;51.390;12.256;2022-12-16T10:51:15;8.70;99.90
5978;DHT22;3015;51.390;12.256;2022-12-16T10:55:11;8.80;99.90
5978;DHT22;3015;51.390;12.256;2022-12-16T11:00:47;8.80;99.90
5978;DHT22;3015;51.390;12.256;2022-12-16T11:03:33;9.30;99.90
5978;DHT22;3015;51.390;12.256;2022-12-16T11:06:27;9.70;99.90
5978;DHT22;3015;51.390;12.256;2022-12-16T11:09:31;10.20;99.90
5978;DHT22;3015;51.390;12.256;2022-12-16T11:15:27;10.40;99.90
5978;DHT22;3015;51.390;12.256;2022-12-16T11:18:20;10.50;99.90
5978;DHT22;3015;51.390;12.256;2022-12-16T11:21:10;9.60;99.90
5978;DHT22;3015;51.390;12.256;2022-12-16T11:27:13;9.30;99.90
5978;DHT22;3015;51.390;12.256;2022-12-16T11:30:02;9.80;99.90
5978;DHT22;3015;51.390;12.256;2022-12-16T11:32:58;9.60;99.90
5978;DHT22;3015;51.390;12.256;2022-12-16T11:35:52;9.70;99.90
5978;DHT22;3015;51.390;12.256;2022-12-16T11:38:46;10.20;99.90
5978;DHT22;3015;51.390;12.256;2022-12-16T11:41:40;10.20;99.90
5978;DHT22;3015;51.390;12.256;2022-12-16T11:44:38;9.60;99.90
5978;DHT22;3015;51.390;12.256;2022-12-16T11:47:43;10.10;99.90
5978;DHT22;3015;51.390;12.256;2022-12-16T11:50:31;10.00;99.90
5978;DHT22;3015;51.390;12.256;2022-12-16T11:56:27;10.30;99.90
5978;DHT22;3015;51.390;12.256;2022-12-16T11:59:33;10.60;99.90
5978;DHT22;3015;51.390;12.256;2022-12-16T12:02:28;11.00;99.90
5978;DHT22;3015;51.390;12.256;2022-12-16T12:05:14;11.20;99.90
5978;DHT22;3015;51.390;12.256;2022-12-16T12:11:06;11.40;99.90
5978;DHT22;3015;51.390;12.256;2022-12-16T12:14:09;11.20;99.90
5978;DHT22;3015;51.390;12.256;2022-12-16T12:17:07;10.70;99.90
5978;DHT22;3015;51.390;12.256;2022-12-16T12:22:58;9.80;99.90
5978;DHT22;3015;51.390;12.256;2022-12-16T12:26:12;10.60;99.90
5978;DHT22;3015;51.390;12.256;2022-12-16T12:32:19;11.20;99.90
5978;DHT22;3015;51.390;12.256;2022-12-16T12:38:19;10.30;99.90
5978;DHT22;3015;51.390;12.256;2022-12-16T12:47:26;8.10;99.90
5978;DHT22;3015;51.390;12.256;2022-12-16T12:50:31;8.00;99.90
5978;DHT22;3015;51.390;12.256;2022-12-16T12:53:23;8.40;99.90
5978;DHT22;3015;51.390;12.256;2022-12-16T12:56:39;8.40;99.90
5978;DHT22;3015;51.390;12.256;2022-12-16T13:00:00;8.80;99.90
5978;DHT22;3015;51.390;12.256;2022-12-16T13:03:06;9.30;99.90
5978;DHT22;3015;51.390;12.256;2022-12-16T13:05:53;9.40;99.90
5978;DHT22;3015;51.390;12.256;2022-12-16T13:11:38;9.60;99.90
5978;DHT22;3015;51.390;12.256;2022-12-16T13:21:29;8.90;99.90
5978;DHT22;3015;51.390;12.256;2022-12-16T13:24:34;9.10;99.90
5978;DHT22;3015;51.390;12.256;2022-12-16T13:27:19;9.50;99.90
5978;DHT22;3015;51.390;12.256;2022-12-16T13:30:18;8.40;99.90
5978;DHT22;3015;51.390;12.256;2022-12-16T13:33:20;7.90;99.90
5978;DHT22;3015;51.390;12.256;2022-12-16T13:36:05;7.10;99.90
5978;DHT22;3015;51.390;12.256;2022-12-16T13:38:52;6.60;99.90
5978;DHT22;3015;51.390;12.256;2022-12-16T13:47:34;5.60;99.90
5978;DHT22;3015;51.390;12.256;2022-12-16T13:50:42;5.40;99.90
5978;DHT22;3015;51.390;12.256;2022-12-16T13:53:46;4.80;99.90
5978;DHT22;3015;51.390;12.256;2022-12-16T13:56:47;4.80;99.90
5978;DHT22;3015;51.390;12.256;2022-12-16T13:59:36;4.50;99.90
5978;DHT22;3015;51.390;12.256;2022-12-16T14:05:32;4.20;99.90
5978;DHT22;3015;51.390;12.256;2022-12-16T14:08:21;4.10;99.90
5978;DHT22;3015;51.390;12.256;2022-12-16T14:14:34;3.50;99.90
5978;DHT22;3015;51.390;12.256;2022-12-16T14:17:29;2.70;99.90
5978;DHT22;3015;51.390;12.256;2022-12-16T14:20:34;2.10;99.90
5978;DHT22;3015;51.390;12.256;2022-12-16T14:23:59;1.50;99.90
5978;DHT22;3015;51.390;12.256;2022-12-16T14:26:44;1.00;99.90
5978;DHT22;3015;51.390;12.256;2022-12-16T14:29:30;0.40;99.90
5978;DHT22;3015;51.390;12.256;2022-12-16T14:32:30;0.20;99.90
5978;DHT22;3015;51.390;12.256;2022-12-16T14:35:24;-0.20;99.90
5978;DHT22;3015;51.390;12.256;2022-12-16T14:38:26;-0.50;99.90
5978;DHT22;3015;51.390;12.256;2022-12-16T14:41:21;-0.80;99.90
5978;DHT22;3015;51.390;12.256;2022-12-16T14:44:20;-1.20;99.90
5978;DHT22;3015;51.390;12.256;2022-12-16T14:47:05;-1.40;99.90
5978;DHT22;3015;51.390;12.256;2022-12-16T14:49:58;-1.80;99.90
5978;DHT22;3015;51.390;12.256;2022-12-16T14:52:42;-2.00;99.90
5978;DHT22;3015;51.390;12.256;2022-12-16T14:55:29;-2.40;99.90
5978;DHT22;3015;51.390;12.256;2022-12-16T14:58:16;-2.60;99.90
5978;DHT22;3015;51.390;12.256;2022-12-16T15:03:56;-3.00;99.90
5978;DHT22;3015;51.390;12.256;2022-12-16T15:06:42;-3.10;99.90
5978;DHT22;3015;51.390;12.256;2022-12-16T15:12:12;-2.90;99.90
5978;DHT22;3015;51.390;12.256;2022-12-16T15:14:58;-3.10;99.90
5978;DHT22;3015;51.390;12.256;2022-12-16T15:17:48;-3.20;1.00
5978;DHT22;3015;51.390;12.256;2022-12-16T15:20:35;-3.20;1.00
5978;DHT22;3015;51.390;12.256;2022-12-16T15:23:30;-3.30;1.00
5978;DHT22;3015;51.390;12.256;2022-12-16T15:29:01;-3.40;1.00
5978;DHT22;3015;51.390;12.256;2022-12-16T15:31:45;-3.20;1.00
5978;DHT22;3015;51.390;12.256;2022-12-16T15:34:47;-3.40;1.00
5978;DHT22;3015;51.390;12.256;2022-12-16T15:37:37;-3.50;1.00
5978;DHT22;3015;51.390;12.256;2022-12-16T15:40:25;-3.70;1.00
5978;DHT22;3015;51.390;12.256;2022-12-16T15:43:30;-3.60;1.00
5978;DHT22;3015;51.390;12.256;2022-12-16T15:46:26;-3.60;1.00
5978;DHT22;3015;51.390;12.256;2022-12-16T15:49:32;-3.60;1.00
5978;DHT22;3015;51.390;12.256;2022-12-16T15:52:36;-3.50;99.30
5978;DHT22;3015;51.390;12.256;2022-12-16T15:55:41;-3.30;99.90
5978;DHT22;3015;51.390;12.256;2022-12-16T15:58:43;-3.30;99.90
5978;DHT22;3015;51.390;12.256;2022-12-16T16:01:38;-3.30;99.90
5978;DHT22;3015;51.390;12.256;2022-12-16T16:04:26;-3.20;99.90
5978;DHT22;3015;51.390;12.256;2022-12-16T16:07:23;-3.30;99.90
5978;DHT22;3015;51.390;12.256;2022-12-16T16:10:27;-3.30;99.90
5978;DHT22;3015;51.390;12.256;2022-12-16T16:13:12;-3.40;99.90
5978;DHT22;3015;51.390;12.256;2022-12-16T16:15:56;-3.50;99.90
5978;DHT22;3015;51.390;12.256;2022-12-16T16:18:41;-3.50;99.90
5978;DHT22;3015;51.390;12.256;2022-12-16T16:21:26;-3.60;99.90
5978;DHT22;3015;51.390;12.256;2022-12-16T16:24:11;-3.60;1.00
5978;DHT22;3015;51.390;12.256;2022-12-16T16:26:58;-3.60;1.00
5978;DHT22;3015;51.390;12.256;2022-12-16T16:29:42;-3.70;1.00
5978;DHT22;3015;51.390;12.256;2022-12-16T16:32:26;-3.70;1.00
5978;DHT22;3015;51.390;12.256;2022-12-16T16:35:10;-3.60;88.30
5978;DHT22;3015;51.390;12.256;2022-12-16T16:37:55;-3.80;99.90
5978;DHT22;3015;51.390;12.256;2022-12-16T16:40:42;-3.80;1.00
5978;DHT22;3015;51.390;12.256;2022-12-16T16:43:27;-3.90;1.00
5978;DHT22;3015;51.390;12.256;2022-12-16T16:46:33;-3.90;1.00
5978;DHT22;3015;51.390;12.256;2022-12-16T16:49:30;-4.00;1.00
5978;DHT22;3015;51.390;12.256;2022-12-16T16:52:17;-4.10;1.00
5978;DHT22;3015;51.390;12.256;2022-12-16T16:55:03;-3.90;99.90
5978;DHT22;3015;51.390;12.256;2022-12-16T16:57:47;-4.10;1.00
5978;DHT22;3015;51.390;12.256;2022-12-16T17:00:31;-4.10;99.90
5978;DHT22;3015;51.390;12.256;2022-12-16T17:03:15;-4.20;1.00
5978;DHT22;3015;51.390;12.256;2022-12-16T17:05:59;-4.00;99.90
5978;DHT22;3015;51.390;12.256;2022-12-16T17:08:43;-4.10;29.30
5978;DHT22;3015;51.390;12.256;2022-12-16T17:11:27;-4.20;1.00
5978;DHT22;3015;51.390;12.256;2022-12-16T17:14:14;-4.20;1.00
5978;DHT22;3015;51.390;12.256;2022-12-16T17:16:59;-4.30;97.90
5978;DHT22;3015;51.390;12.256;2022-12-16T17:19:43;-4.30;9.40
5978;DHT22;3015;51.390;12.256;2022-12-16T17:22:27;-4.10;1.00
5978;DHT22;3015;51.390;12.256;2022-12-16T17:25:12;-4.20;99.90
5978;DHT22;3015;51.390;12.256;2022-12-16T17:27:57;-4.10;99.90
5978;DHT22;3015;51.390;12.256;2022-12-16T17:30:41;-4.20;1.00
5978;DHT22;3015;51.390;12.256;2022-12-16T17:33:25;-4.10;90.30
5978;DHT22;3015;51.390;12.256;2022-12-16T17:36:14;-4.20;99.90
5978;DHT22;3015;51.390;12.256;2022-12-16T17:38:59;-4.20;1.00
5978;DHT22;3015;51.390;12.256;2022-12-16T17:41:43;-4.20;99.90
5978;DHT22;3015;51.390;12.256;2022-12-16T17:44:27;-4.40;1.00
5978;DHT22;3015;51.390;12.256;2022-12-16T17:47:11;-4.30;99.90
5978;DHT22;3015;51.390;12.256;2022-12-16T17:49:55;-4.40;99.90
5978;DHT22;3015;51.390;12.256;2022-12-16T17:52:39;-4.40;1.00
5978;DHT22;3015;51.390;12.256;2022-12-16T17:55:24;-4.40;99.90
5978;DHT22;3015;51.390;12.256;2022-12-16T17:58:08;-4.50;1.00
5978;DHT22;3015;51.390;12.256;2022-12-16T18:00:52;-4.40;99.90
5978;DHT22;3015;51.390;12.256;2022-12-16T18:03:36;-4.60;1.00
5978;DHT22;3015;51.390;12.256;2022-12-16T18:06:20;-4.60;99.90
5978;DHT22;3015;51.390;12.256;2022-12-16T18:09:04;-4.60;99.90
5978;DHT22;3015;51.390;12.256;2022-12-16T18:11:48;-4.50;99.90
5978;DHT22;3015;51.390;12.256;2022-12-16T18:14:32;-4.50;1.00
5978;DHT22;3015;51.390;12.256;2022-12-16T18:17:16;-4.50;92.30
5978;DHT22;3015;51.390;12.256;2022-12-16T18:20:17;-4.30;99.90
5978;DHT22;3015;51.390;12.256;2022-12-16T18:23:01;-4.30;1.00
5978;DHT22;3015;51.390;12.256;2022-12-16T18:25:56;-4.40;1.00
5978;DHT22;3015;51.390;12.256;2022-12-16T18:28:40;-4.30;99.90
5978;DHT22;3015;51.390;12.256;2022-12-16T18:31:24;-4.30;1.00
5978;DHT22;3015;51.390;12.256;2022-12-16T18:34:08;-4.30;1.00
5978;DHT22;3015;51.390;12.256;2022-12-16T18:36:52;-4.50;96.90
5978;DHT22;3015;51.390;12.256;2022-12-16T18:39:36;-4.50;1.00
5978;DHT22;3015;51.390;12.256;2022-12-16T18:42:20;-4.50;99.90
5978;DHT22;3015;51.390;12.256;2022-12-16T18:45:04;-4.50;1.00
5978;DHT22;3015;51.390;12.256;2022-12-16T18:47:49;-4.50;1.00
5978;DHT22;3015;51.390;12.256;2022-12-16T18:50:33;-4.50;1.00
5978;DHT22;3015;51.390;12.256;2022-12-16T18:53:17;-4.50;1.00
5978;DHT22;3015;51.390;12.256;2022-12-16T18:56:03;-4.60;1.00
5978;DHT22;3015;51.390;12.256;2022-12-16T18:58:48;-4.50;1.00
5978;DHT22;3015;51.390;12.256;2022-12-16T19:01:32;-4.60;35.10
5978;DHT22;3015;51.390;12.256;2022-12-16T19:04:16;-4.60;26.00
5978;DHT22;3015;51.390;12.256;2022-12-16T19:07:00;-4.50;99.90
5978;DHT22;3015;51.390;12.256;2022-12-16T19:09:44;-4.40;1.00
5978;DHT22;3015;51.390;12.256;2022-12-16T19:12:28;-4.40;99.90
5978;DHT22;3015;51.390;12.256;2022-12-16T19:15:12;-4.60;1.00
5978;DHT22;3015;51.390;12.256;2022-12-16T19:17:56;-4.50;99.90